createdAt,value
2018-02-24T00:00:15.392Z,1018.81
2018-02-24T00:00:41.505Z,1018.8
2018-02-24T00:01:07.674Z,1018.78
2018-02-24T00:01:33.776Z,1018.81
2018-02-24T00:01:59.894Z,1018.74
2018-02-24T00:02:26.028Z,1018.76
2018-02-24T00:02:52.156Z,1018.78
2018-02-24T00:03:18.308Z,1018.76
2018-02-24T00:03:44.417Z,1018.81
2018-02-24T00:04:10.530Z,1018.8
2018-02-24T00:04:36.646Z,1018.83
2018-02-24T00:05:02.782Z,1018.79
2018-02-24T00:05:28.890Z,1018.76
2018-02-24T00:05:55.009Z,1018.74
2018-02-24T00:06:21.144Z,1018.8
2018-02-24T00:06:47.243Z,1018.79
2018-02-24T00:07:13.361Z,1018.8
2018-02-24T00:07:39.466Z,1018.77
2018-02-24T00:08:05.599Z,1018.72
2018-02-24T00:08:31.693Z,1018.83
2018-02-24T00:08:57.808Z,1018.8
2018-02-24T00:09:23.930Z,1018.76
2018-02-24T00:09:50.040Z,1018.79
2018-02-24T00:10:16.157Z,1018.72
2018-02-24T00:10:42.268Z,1018.74
2018-02-24T00:11:08.385Z,1018.78
2018-02-24T00:11:34.526Z,1018.82
2018-02-24T00:12:00.669Z,1018.82
2018-02-24T00:12:26.781Z,1018.79
2018-02-24T00:12:52.890Z,1018.83
2018-02-24T00:13:19.006Z,1018.81
2018-02-24T00:13:45.113Z,1018.81
2018-02-24T00:14:11.233Z,1018.81
2018-02-24T00:14:37.400Z,1018.82
2018-02-24T00:15:03.453Z,1018.82
2018-02-24T00:15:29.567Z,1018.77
2018-02-24T00:15:55.680Z,1018.79
2018-02-24T00:16:21.792Z,1018.81
2018-02-24T00:16:47.903Z,1018.8
2018-02-24T00:17:14.039Z,1018.81
2018-02-24T00:17:40.148Z,1018.8
2018-02-24T00:18:06.262Z,1018.8
2018-02-24T00:18:32.371Z,1018.81
2018-02-24T00:18:58.489Z,1018.82
2018-02-24T00:19:24.598Z,1018.84
2018-02-24T00:19:50.717Z,1018.79
2018-02-24T00:20:16.824Z,1018.82
2018-02-24T00:20:42.983Z,1018.81
2018-02-24T00:21:09.054Z,1018.82
2018-02-24T00:21:35.161Z,1018.75
2018-02-24T00:22:01.279Z,1018.86
2018-02-24T00:22:27.392Z,1018.76
2018-02-24T00:22:53.500Z,1018.76
2018-02-24T00:23:19.635Z,1018.8
2018-02-24T00:23:45.744Z,1018.77
2018-02-24T00:24:11.866Z,1018.76
2018-02-24T00:24:37.980Z,1018.78
2018-02-24T00:25:04.085Z,1018.77
2018-02-24T00:25:30.196Z,1018.75
2018-02-24T00:25:56.314Z,1018.75
2018-02-24T00:26:22.426Z,1018.73
2018-02-24T00:26:48.532Z,1018.75
2018-02-24T00:27:14.650Z,1018.77
2018-02-24T00:27:40.776Z,1018.74
2018-02-24T00:28:06.899Z,1018.76
2018-02-24T00:28:33.006Z,1018.79
2018-02-24T00:28:59.121Z,1018.78
2018-02-24T00:29:25.230Z,1018.81
2018-02-24T00:29:51.340Z,1018.76
2018-02-24T00:30:17.462Z,1018.74
2018-02-24T00:30:43.566Z,1018.79
2018-02-24T00:31:09.681Z,1018.81
2018-02-24T00:31:35.786Z,1018.79
2018-02-24T00:32:01.904Z,1018.79
2018-02-24T00:32:28.014Z,1018.81
2018-02-24T00:32:54.129Z,1018.82
2018-02-24T00:33:20.244Z,1018.78
2018-02-24T00:33:46.357Z,1018.81
2018-02-24T00:34:12.471Z,1018.84
2018-02-24T00:34:38.578Z,1018.81
2018-02-24T00:35:04.689Z,1018.83
2018-02-24T00:35:30.802Z,1018.82
2018-02-24T00:35:56.910Z,1018.83
2018-02-24T00:36:23.030Z,1018.81
2018-02-24T00:36:49.136Z,1018.87
2018-02-24T00:37:15.250Z,1018.81
2018-02-24T00:37:41.360Z,1018.85
2018-02-24T00:38:07.498Z,1018.81
2018-02-24T00:38:33.631Z,1018.8
2018-02-24T00:38:59.747Z,1018.83
2018-02-24T00:39:25.858Z,1018.87
2018-02-24T00:39:51.965Z,1018.8
2018-02-24T00:40:18.071Z,1018.85
2018-02-24T00:40:44.187Z,1018.82
2018-02-24T00:41:10.298Z,1018.82
2018-02-24T00:41:36.411Z,1018.8
2018-02-24T00:42:02.526Z,1018.79
2018-02-24T00:42:28.650Z,1018.84
2018-02-24T00:42:54.762Z,1018.79
2018-02-24T00:43:20.875Z,1018.83
2018-02-24T00:43:46.986Z,1018.8
2018-02-24T00:44:13.131Z,1018.76
2018-02-24T00:44:39.240Z,1018.77
2018-02-24T00:45:05.358Z,1018.72
2018-02-24T00:45:31.464Z,1018.79
2018-02-24T00:45:57.579Z,1018.82
2018-02-24T00:46:23.710Z,1018.82
2018-02-24T00:46:49.816Z,1018.83
2018-02-24T00:47:15.937Z,1018.84
2018-02-24T00:47:42.041Z,1018.88
2018-02-24T00:48:08.159Z,1018.84
2018-02-24T00:48:34.276Z,1018.82
2018-02-24T00:49:00.388Z,1018.91
2018-02-24T00:49:26.497Z,1018.88
2018-02-24T00:49:52.610Z,1018.89
2018-02-24T00:50:18.741Z,1018.89
2018-02-24T00:50:44.868Z,1018.86
2018-02-24T00:51:10.984Z,1018.84
2018-02-24T00:51:37.090Z,1018.91
2018-02-24T00:52:03.209Z,1018.9
2018-02-24T00:52:29.322Z,1018.91
2018-02-24T00:52:55.430Z,1018.94
2018-02-24T00:53:21.548Z,1018.9
2018-02-24T00:53:47.659Z,1018.91
2018-02-24T00:54:13.766Z,1018.89
2018-02-24T00:54:39.885Z,1018.87
2018-02-24T00:55:05.991Z,1018.91
2018-02-24T00:55:32.109Z,1018.92
2018-02-24T00:55:58.240Z,1018.86
2018-02-24T00:56:24.352Z,1018.87
2018-02-24T00:56:50.468Z,1018.87
2018-02-24T00:57:16.579Z,1018.9
2018-02-24T00:57:42.706Z,1018.95
2018-02-24T00:58:08.824Z,1018.88
2018-02-24T00:58:34.940Z,1018.87
2018-02-24T00:59:01.048Z,1018.88
2018-02-24T00:59:27.162Z,1018.84
2018-02-24T00:59:53.275Z,1018.87
2018-02-24T01:00:19.390Z,1018.88
2018-02-24T01:00:45.497Z,1018.85
2018-02-24T01:01:11.613Z,1018.87
2018-02-24T01:01:37.720Z,1018.91
2018-02-24T01:02:03.854Z,1018.86
2018-02-24T01:02:29.986Z,1018.88
2018-02-24T01:02:56.100Z,1018.83
2018-02-24T01:03:22.206Z,1018.85
2018-02-24T01:03:48.314Z,1018.86
2018-02-24T01:04:14.429Z,1018.89
2018-02-24T01:04:40.541Z,1018.85
2018-02-24T01:05:06.690Z,1018.86
2018-02-24T01:05:32.794Z,1018.85
2018-02-24T01:05:58.875Z,1018.87
2018-02-24T01:06:24.990Z,1018.89
2018-02-24T01:06:51.104Z,1018.9
2018-02-24T01:07:17.215Z,1018.9
2018-02-24T01:07:43.326Z,1018.84
2018-02-24T01:08:09.448Z,1018.88
2018-02-24T01:08:35.579Z,1018.86
2018-02-24T01:09:01.695Z,1018.87
2018-02-24T01:09:27.831Z,1018.85
2018-02-24T01:09:53.941Z,1018.86
2018-02-24T01:10:20.056Z,1018.84
2018-02-24T01:10:46.166Z,1018.85
2018-02-24T01:11:12.276Z,1018.83
2018-02-24T01:11:38.393Z,1018.85
2018-02-24T01:12:04.500Z,1018.89
2018-02-24T01:12:30.627Z,1018.84
2018-02-24T01:12:56.745Z,1018.86
2018-02-24T01:13:22.854Z,1018.86
2018-02-24T01:13:48.965Z,1018.85
2018-02-24T01:14:15.082Z,1018.85
2018-02-24T01:14:41.193Z,1018.83
2018-02-24T01:15:07.299Z,1018.85
2018-02-24T01:15:33.415Z,1018.81
2018-02-24T01:15:59.526Z,1018.81
2018-02-24T01:16:25.644Z,1018.82
2018-02-24T01:16:51.751Z,1018.87
2018-02-24T01:17:17.908Z,1018.86
2018-02-24T01:17:44.026Z,1018.82
2018-02-24T01:18:10.137Z,1018.8
2018-02-24T01:18:36.243Z,1018.76
2018-02-24T01:19:02.363Z,1018.81
2018-02-24T01:19:28.478Z,1018.79
2018-02-24T01:19:54.587Z,1018.82
2018-02-24T01:20:20.703Z,1018.84
2018-02-24T01:20:46.828Z,1018.85
2018-02-24T01:21:12.940Z,1018.85
2018-02-24T01:21:39.053Z,1018.84
2018-02-24T01:22:05.161Z,1018.78
2018-02-24T01:22:31.278Z,1018.85
2018-02-24T01:22:57.392Z,1018.83
2018-02-24T01:23:23.502Z,1018.85
2018-02-24T01:23:49.620Z,1018.78
2018-02-24T01:24:15.740Z,1018.82
2018-02-24T01:24:41.847Z,1018.87
2018-02-24T01:25:07.955Z,1018.82
2018-02-24T01:25:34.083Z,1018.83
2018-02-24T01:26:00.192Z,1018.79
2018-02-24T01:26:26.304Z,1018.87
2018-02-24T01:26:52.420Z,1018.81
2018-02-24T01:27:18.533Z,1018.85
2018-02-24T01:27:44.641Z,1018.82
2018-02-24T01:28:10.757Z,1018.76
2018-02-24T01:28:36.871Z,1018.8
2018-02-24T01:29:02.985Z,1018.8
2018-02-24T01:29:29.098Z,1018.8
2018-02-24T01:29:55.217Z,1018.82
2018-02-24T01:30:21.324Z,1018.8
2018-02-24T01:30:47.447Z,1018.82
2018-02-24T01:31:13.564Z,1018.85
2018-02-24T01:31:39.677Z,1018.83
2018-02-24T01:32:05.819Z,1018.85
2018-02-24T01:32:31.931Z,1018.81
2018-02-24T01:32:58.038Z,1018.82
2018-02-24T01:33:24.159Z,1018.85
2018-02-24T01:33:50.272Z,1018.84
2018-02-24T01:34:16.382Z,1018.83
2018-02-24T01:34:42.491Z,1018.84
2018-02-24T01:35:08.608Z,1018.83
2018-02-24T01:35:34.721Z,1018.85
2018-02-24T01:36:00.826Z,1018.85
2018-02-24T01:36:26.942Z,1018.79
2018-02-24T01:36:53.059Z,1018.82
2018-02-24T01:37:19.183Z,1018.85
2018-02-24T01:37:45.298Z,1018.79
2018-02-24T01:38:11.410Z,1018.79
2018-02-24T01:38:37.541Z,1018.79
2018-02-24T01:39:03.648Z,1018.85
2018-02-24T01:39:29.766Z,1018.86
2018-02-24T01:39:55.876Z,1018.84
2018-02-24T01:40:22.005Z,1018.84
2018-02-24T01:40:48.125Z,1018.82
2018-02-24T01:41:14.229Z,1018.88
2018-02-24T01:41:40.347Z,1018.87
2018-02-24T01:42:06.458Z,1018.81
2018-02-24T01:42:32.565Z,1018.86
2018-02-24T01:42:58.677Z,1018.84
2018-02-24T01:43:24.812Z,1018.85
2018-02-24T01:43:50.924Z,1018.84
2018-02-24T01:44:17.033Z,1018.83
2018-02-24T01:44:43.150Z,1018.83
2018-02-24T01:45:09.259Z,1018.85
2018-02-24T01:45:35.368Z,1018.87
2018-02-24T01:46:01.505Z,1018.88
2018-02-24T01:46:27.622Z,1018.87
2018-02-24T01:46:53.735Z,1018.86
2018-02-24T01:47:19.851Z,1018.88
2018-02-24T01:47:45.965Z,1018.9
2018-02-24T01:48:12.072Z,1018.85
2018-02-24T01:48:38.183Z,1018.89
2018-02-24T01:49:04.293Z,1018.87
2018-02-24T01:49:30.404Z,1018.9
2018-02-24T01:49:56.515Z,1018.87
2018-02-24T01:50:22.631Z,1018.9
2018-02-24T01:50:48.740Z,1018.88
2018-02-24T01:51:14.860Z,1018.85
2018-02-24T01:51:40.972Z,1018.9
2018-02-24T01:52:07.080Z,1018.86
2018-02-24T01:52:33.197Z,1018.88
2018-02-24T01:52:59.307Z,1018.86
2018-02-24T01:53:25.421Z,1018.84
2018-02-24T01:53:51.542Z,1018.86
2018-02-24T01:54:17.669Z,1018.85
2018-02-24T01:54:43.766Z,1018.87
2018-02-24T01:55:09.879Z,1018.85
2018-02-24T01:55:35.976Z,1018.88
2018-02-24T01:56:02.073Z,1018.86
2018-02-24T01:56:28.173Z,1018.85
2018-02-24T01:56:54.322Z,1018.83
2018-02-24T01:57:20.426Z,1018.9
2018-02-24T01:57:46.530Z,1018.87
2018-02-24T01:58:12.634Z,1018.89
2018-02-24T01:58:38.729Z,1018.92
2018-02-24T01:59:04.827Z,1018.93
2018-02-24T01:59:30.924Z,1018.87
2018-02-24T01:59:57.030Z,1018.9
2018-02-24T02:00:23.129Z,1018.9
2018-02-24T02:00:49.222Z,1018.88
2018-02-24T02:01:15.340Z,1018.92
2018-02-24T02:01:41.443Z,1018.89
2018-02-24T02:02:07.547Z,1018.96
2018-02-24T02:02:33.639Z,1018.94
2018-02-24T02:02:59.742Z,1018.92
2018-02-24T02:03:25.840Z,1018.91
2018-02-24T02:03:51.940Z,1018.94
2018-02-24T02:04:18.030Z,1018.93
2018-02-24T02:04:44.127Z,1018.92
2018-02-24T02:05:10.228Z,1018.97
2018-02-24T02:05:36.322Z,1018.93
2018-02-24T02:06:02.423Z,1018.91
2018-02-24T02:06:28.519Z,1018.98
2018-02-24T02:06:54.622Z,1018.96
2018-02-24T02:07:20.729Z,1018.9
2018-02-24T02:07:46.817Z,1018.87
2018-02-24T02:08:12.923Z,1018.87
2018-02-24T02:08:39.029Z,1018.89
2018-02-24T02:09:05.133Z,1018.92
2018-02-24T02:09:31.229Z,1018.89
2018-02-24T02:09:57.331Z,1018.96
2018-02-24T02:10:23.430Z,1018.98
2018-02-24T02:10:49.527Z,1018.95
2018-02-24T02:11:15.622Z,1018.9
2018-02-24T02:11:41.718Z,1018.96
2018-02-24T02:12:07.817Z,1018.92
2018-02-24T02:12:33.919Z,1018.95
2018-02-24T02:13:00.015Z,1018.92
2018-02-24T02:13:26.113Z,1018.9
2018-02-24T02:13:52.212Z,1018.96
2018-02-24T02:14:18.306Z,1018.93
2018-02-24T02:14:44.402Z,1018.91
2018-02-24T02:15:10.500Z,1018.93
2018-02-24T02:15:36.603Z,1018.92
2018-02-24T02:16:02.706Z,1018.89
2018-02-24T02:16:28.796Z,1018.9
2018-02-24T02:16:54.898Z,1018.88
2018-02-24T02:17:20.988Z,1018.91
2018-02-24T02:17:47.088Z,1018.88
2018-02-24T02:18:13.195Z,1018.92
2018-02-24T02:18:39.290Z,1018.94
2018-02-24T02:19:05.401Z,1018.95
2018-02-24T02:19:31.518Z,1018.92
2018-02-24T02:19:57.610Z,1018.94
2018-02-24T02:20:23.721Z,1018.93
2018-02-24T02:20:49.822Z,1018.9
2018-02-24T02:21:15.922Z,1018.93
2018-02-24T02:21:42.017Z,1018.91
2018-02-24T02:22:08.115Z,1018.91
2018-02-24T02:22:34.216Z,1018.95
2018-02-24T02:23:00.313Z,1018.95
2018-02-24T02:23:26.412Z,1018.96
2018-02-24T02:23:52.530Z,1018.96
2018-02-24T02:24:18.627Z,1018.94
2018-02-24T02:24:44.722Z,1018.96
2018-02-24T02:25:10.826Z,1018.94
2018-02-24T02:25:36.919Z,1018.91
2018-02-24T02:26:03.022Z,1018.89
2018-02-24T02:26:29.126Z,1018.94
2018-02-24T02:26:55.215Z,1018.95
2018-02-24T02:27:21.319Z,1018.94
2018-02-24T02:27:47.408Z,1018.94
2018-02-24T02:28:13.503Z,1018.93
2018-02-24T02:28:39.607Z,1018.9
2018-02-24T02:29:05.700Z,1018.93
2018-02-24T02:29:31.848Z,1018.85
2018-02-24T02:29:57.902Z,1018.92
2018-02-24T02:30:23.998Z,1018.91
2018-02-24T02:30:50.096Z,1018.88
2018-02-24T02:31:16.203Z,1018.91
2018-02-24T02:31:42.294Z,1018.89
2018-02-24T02:32:08.398Z,1018.89
2018-02-24T02:32:34.503Z,1018.89
2018-02-24T02:33:00.599Z,1018.88
2018-02-24T02:33:26.700Z,1018.9
2018-02-24T02:33:52.824Z,1018.93
2018-02-24T02:34:18.931Z,1018.97
2018-02-24T02:34:45.034Z,1018.96
2018-02-24T02:35:11.149Z,1018.96
2018-02-24T02:35:37.251Z,1018.94
2018-02-24T02:36:03.349Z,1018.93
2018-02-24T02:36:29.443Z,1018.86
2018-02-24T02:36:55.562Z,1018.92
2018-02-24T02:37:21.653Z,1018.88
2018-02-24T02:37:47.748Z,1018.96
2018-02-24T02:38:13.847Z,1018.95
2018-02-24T02:38:39.941Z,1018.9
2018-02-24T02:39:06.040Z,1018.89
2018-02-24T02:39:32.142Z,1018.91
2018-02-24T02:39:58.247Z,1018.93
2018-02-24T02:40:24.350Z,1018.91
2018-02-24T02:40:50.444Z,1018.9
2018-02-24T02:41:16.543Z,1018.9
2018-02-24T02:41:42.644Z,1018.92
2018-02-24T02:42:08.740Z,1018.92
2018-02-24T02:42:34.844Z,1018.95
2018-02-24T02:43:00.936Z,1018.92
2018-02-24T02:43:27.040Z,1019.01
2018-02-24T02:43:53.157Z,1018.93
2018-02-24T02:44:19.254Z,1018.95
2018-02-24T02:44:45.351Z,1018.93
2018-02-24T02:45:11.451Z,1018.91
2018-02-24T02:45:37.575Z,1018.92
2018-02-24T02:46:03.663Z,1018.94
2018-02-24T02:46:29.769Z,1018.94
2018-02-24T02:46:55.859Z,1018.95
2018-02-24T02:47:21.960Z,1018.97
2018-02-24T02:47:48.055Z,1019
2018-02-24T02:48:14.185Z,1018.94
2018-02-24T02:48:40.291Z,1018.94
2018-02-24T02:49:06.380Z,1018.93
2018-02-24T02:49:32.481Z,1018.92
2018-02-24T02:49:58.576Z,1018.91
2018-02-24T02:50:24.678Z,1018.93
2018-02-24T02:50:50.790Z,1018.9
2018-02-24T02:51:16.886Z,1018.95
2018-02-24T02:51:42.981Z,1018.91
2018-02-24T02:52:09.085Z,1018.93
2018-02-24T02:52:35.188Z,1018.85
2018-02-24T02:53:01.282Z,1018.9
2018-02-24T02:53:27.384Z,1018.91
2018-02-24T02:53:53.478Z,1018.93
2018-02-24T02:54:19.605Z,1018.89
2018-02-24T02:54:45.717Z,1018.91
2018-02-24T02:55:11.815Z,1018.84
2018-02-24T02:55:37.920Z,1018.82
2018-02-24T02:56:04.020Z,1018.86
2018-02-24T02:56:30.112Z,1018.87
2018-02-24T02:56:56.224Z,1018.9
2018-02-24T02:57:22.324Z,1018.85
2018-02-24T02:57:48.420Z,1018.87
2018-02-24T02:58:14.518Z,1018.85
2018-02-24T02:58:40.637Z,1018.89
2018-02-24T02:59:06.736Z,1018.86
2018-02-24T02:59:32.827Z,1018.87
2018-02-24T02:59:58.947Z,1018.9
2018-02-24T03:00:25.045Z,1018.9
2018-02-24T03:00:51.140Z,1018.86
2018-02-24T03:01:17.240Z,1018.93
2018-02-24T03:01:43.338Z,1018.98
2018-02-24T03:02:09.443Z,1018.93
2018-02-24T03:02:35.544Z,1018.94
2018-02-24T03:03:01.648Z,1018.94
2018-02-24T03:03:27.742Z,1018.92
2018-02-24T03:03:53.876Z,1018.9
2018-02-24T03:04:19.968Z,1018.94
2018-02-24T03:04:46.065Z,1018.92
2018-02-24T03:05:12.162Z,1018.89
2018-02-24T03:05:38.258Z,1018.95
2018-02-24T03:06:04.361Z,1018.91
2018-02-24T03:06:30.462Z,1018.95
2018-02-24T03:06:56.553Z,1018.91
2018-02-24T03:07:22.656Z,1018.95
2018-02-24T03:07:48.749Z,1018.94
2018-02-24T03:08:14.842Z,1018.94
2018-02-24T03:08:40.947Z,1018.92
2018-02-24T03:09:07.038Z,1018.97
2018-02-24T03:09:33.140Z,1018.94
2018-02-24T03:09:59.238Z,1018.91
2018-02-24T03:10:25.333Z,1018.99
2018-02-24T03:10:51.432Z,1018.96
2018-02-24T03:11:17.534Z,1019.02
2018-02-24T03:11:43.632Z,1018.99
2018-02-24T03:12:09.727Z,1019.04
2018-02-24T03:12:35.830Z,1019
2018-02-24T03:13:01.927Z,1019.03
2018-02-24T03:13:28.021Z,1019.02
2018-02-24T03:13:54.123Z,1019.01
2018-02-24T03:14:20.219Z,1019.07
2018-02-24T03:14:46.338Z,1019.08
2018-02-24T03:15:12.439Z,1019.05
2018-02-24T03:15:38.534Z,1019.08
2018-02-24T03:16:04.632Z,1019.05
2018-02-24T03:16:30.726Z,1019.08
2018-02-24T03:16:56.827Z,1019.07
2018-02-24T03:17:22.922Z,1019.06
2018-02-24T03:17:49.019Z,1019.07
2018-02-24T03:18:15.114Z,1019.05
2018-02-24T03:18:41.214Z,1019.1
2018-02-24T03:19:07.314Z,1019.07
2018-02-24T03:19:33.413Z,1019.03
2018-02-24T03:19:59.512Z,1019.07
2018-02-24T03:20:25.630Z,1019.09
2018-02-24T03:20:51.730Z,1019.09
2018-02-24T03:21:17.823Z,1019.11
2018-02-24T03:21:43.926Z,1019.11
2018-02-24T03:22:10.030Z,1019.1
2018-02-24T03:22:36.124Z,1019.12
2018-02-24T03:23:02.217Z,1019.01
2018-02-24T03:23:28.310Z,1019.11
2018-02-24T03:23:54.410Z,1019.13
2018-02-24T03:24:20.506Z,1019.11
2018-02-24T03:24:46.613Z,1019.16
2018-02-24T03:25:12.729Z,1019.14
2018-02-24T03:25:38.830Z,1019.13
2018-02-24T03:26:04.926Z,1019.18
2018-02-24T03:26:31.023Z,1019.17
2018-02-24T03:26:57.114Z,1019.16
2018-02-24T03:27:23.217Z,1019.15
2018-02-24T03:27:49.319Z,1019.14
2018-02-24T03:28:15.417Z,1019.16
2018-02-24T03:28:41.512Z,1019.17
2018-02-24T03:29:07.612Z,1019.15
2018-02-24T03:29:33.705Z,1019.2
2018-02-24T03:29:59.803Z,1019.14
2018-02-24T03:30:25.919Z,1019.19
2018-02-24T03:30:52.016Z,1019.22
2018-02-24T03:31:18.116Z,1019.18
2018-02-24T03:31:44.214Z,1019.19
2018-02-24T03:32:10.306Z,1019.21
2018-02-24T03:32:36.404Z,1019.16
2018-02-24T03:33:02.525Z,1019.2
2018-02-24T03:33:28.625Z,1019.17
2018-02-24T03:33:54.727Z,1019.18
2018-02-24T03:34:20.837Z,1019.23
2018-02-24T03:34:46.940Z,1019.23
2018-02-24T03:35:13.035Z,1019.2
2018-02-24T03:35:39.129Z,1019.18
2018-02-24T03:36:05.235Z,1019.19
2018-02-24T03:36:31.331Z,1019.21
2018-02-24T03:36:57.433Z,1019.22
2018-02-24T03:37:23.546Z,1019.22
2018-02-24T03:37:49.660Z,1019.29
2018-02-24T03:38:15.755Z,1019.22
2018-02-24T03:38:41.854Z,1019.2
2018-02-24T03:39:07.955Z,1019.26
2018-02-24T03:39:34.052Z,1019.24
2018-02-24T03:40:00.156Z,1019.24
2018-02-24T03:40:26.256Z,1019.29
2018-02-24T03:40:52.352Z,1019.22
2018-02-24T03:41:18.444Z,1019.24
2018-02-24T03:41:44.547Z,1019.29
2018-02-24T03:42:10.645Z,1019.3
2018-02-24T03:42:36.776Z,1019.33
2018-02-24T03:43:02.876Z,1019.34
2018-02-24T03:43:28.970Z,1019.31
2018-02-24T03:43:55.069Z,1019.28
2018-02-24T03:44:21.165Z,1019.32
2018-02-24T03:44:47.263Z,1019.32
2018-02-24T03:45:13.365Z,1019.29
2018-02-24T03:45:39.458Z,1019.3
2018-02-24T03:46:05.559Z,1019.3
2018-02-24T03:46:31.654Z,1019.3
2018-02-24T03:46:57.791Z,1019.33
2018-02-24T03:47:23.888Z,1019.35
2018-02-24T03:47:49.984Z,1019.31
2018-02-24T03:48:16.131Z,1019.38
2018-02-24T03:48:42.221Z,1019.34
2018-02-24T03:49:08.310Z,1019.38
2018-02-24T03:49:34.406Z,1019.32
2018-02-24T03:50:00.508Z,1019.34
2018-02-24T03:50:26.609Z,1019.38
2018-02-24T03:50:52.707Z,1019.33
2018-02-24T03:51:18.809Z,1019.37
2018-02-24T03:51:44.938Z,1019.32
2018-02-24T03:52:11.031Z,1019.37
2018-02-24T03:52:37.124Z,1019.37
2018-02-24T03:53:03.229Z,1019.42
2018-02-24T03:53:29.328Z,1019.31
2018-02-24T03:53:55.424Z,1019.39
2018-02-24T03:54:21.535Z,1019.37
2018-02-24T03:54:47.636Z,1019.39
2018-02-24T03:55:13.741Z,1019.38
2018-02-24T03:55:39.847Z,1019.36
2018-02-24T03:56:05.949Z,1019.38
2018-02-24T03:56:32.047Z,1019.38
2018-02-24T03:56:58.148Z,1019.37
2018-02-24T03:57:24.241Z,1019.34
2018-02-24T03:57:50.344Z,1019.34
2018-02-24T03:58:16.442Z,1019.39
2018-02-24T03:58:42.563Z,1019.36
2018-02-24T03:59:08.656Z,1019.43
2018-02-24T03:59:34.758Z,1019.36
2018-02-24T04:00:00.857Z,1019.36
2018-02-24T04:00:26.948Z,1019.35
2018-02-24T04:00:53.049Z,1019.34
2018-02-24T04:01:19.152Z,1019.34
2018-02-24T04:01:45.244Z,1019.38
2018-02-24T04:02:11.341Z,1019.35
2018-02-24T04:02:37.476Z,1019.34
2018-02-24T04:03:03.571Z,1019.34
2018-02-24T04:03:29.675Z,1019.31
2018-02-24T04:03:55.768Z,1019.35
2018-02-24T04:04:21.872Z,1019.35
2018-02-24T04:04:47.968Z,1019.37
2018-02-24T04:05:14.065Z,1019.33
2018-02-24T04:05:40.153Z,1019.33
2018-02-24T04:06:06.271Z,1019.29
2018-02-24T04:06:32.361Z,1019.3
2018-02-24T04:06:58.465Z,1019.31
2018-02-24T04:07:24.584Z,1019.33
2018-02-24T04:07:50.678Z,1019.28
2018-02-24T04:08:16.780Z,1019.34
2018-02-24T04:08:42.877Z,1019.34
2018-02-24T04:09:08.976Z,1019.34
2018-02-24T04:09:35.069Z,1019.31
2018-02-24T04:10:01.174Z,1019.34
2018-02-24T04:10:27.263Z,1019.32
2018-02-24T04:10:53.370Z,1019.32
2018-02-24T04:11:19.468Z,1019.35
2018-02-24T04:11:45.565Z,1019.36
2018-02-24T04:12:11.661Z,1019.32
2018-02-24T04:12:37.780Z,1019.38
2018-02-24T04:13:03.873Z,1019.41
2018-02-24T04:13:29.968Z,1019.34
2018-02-24T04:13:56.064Z,1019.36
2018-02-24T04:14:22.174Z,1019.33
2018-02-24T04:14:48.273Z,1019.41
2018-02-24T04:15:14.369Z,1019.4
2018-02-24T04:15:40.481Z,1019.34
2018-02-24T04:16:06.579Z,1019.36
2018-02-24T04:16:32.777Z,1019.38
2018-02-24T04:16:58.794Z,1019.37
2018-02-24T04:17:24.895Z,1019.36
2018-02-24T04:17:50.992Z,1019.39
2018-02-24T04:18:17.092Z,1019.38
2018-02-24T04:18:43.206Z,1019.43
2018-02-24T04:19:09.298Z,1019.39
2018-02-24T04:19:35.406Z,1019.39
2018-02-24T04:20:01.499Z,1019.45
2018-02-24T04:20:27.593Z,1019.46
2018-02-24T04:20:53.688Z,1019.49
2018-02-24T04:21:19.791Z,1019.44
2018-02-24T04:21:45.887Z,1019.43
2018-02-24T04:22:11.987Z,1019.43
2018-02-24T04:22:38.089Z,1019.55
2018-02-24T04:23:04.191Z,1019.5
2018-02-24T04:23:30.286Z,1019.49
2018-02-24T04:23:56.389Z,1019.5
2018-02-24T04:24:22.481Z,1019.49
2018-02-24T04:24:48.576Z,1019.47
2018-02-24T04:25:14.678Z,1019.49
2018-02-24T04:25:40.774Z,1019.52
2018-02-24T04:26:06.887Z,1019.55
2018-02-24T04:26:32.985Z,1019.56
2018-02-24T04:26:59.080Z,1019.48
2018-02-24T04:27:25.186Z,1019.48
2018-02-24T04:27:51.276Z,1019.48
2018-02-24T04:28:17.373Z,1019.53
2018-02-24T04:28:43.477Z,1019.53
2018-02-24T04:29:09.597Z,1019.55
2018-02-24T04:29:35.688Z,1019.53
2018-02-24T04:30:01.783Z,1019.57
2018-02-24T04:30:27.886Z,1019.58
2018-02-24T04:30:53.984Z,1019.53
2018-02-24T04:31:20.078Z,1019.58
2018-02-24T04:31:46.177Z,1019.55
2018-02-24T04:32:12.276Z,1019.62
2018-02-24T04:32:38.376Z,1019.57
2018-02-24T04:33:04.469Z,1019.56
2018-02-24T04:33:30.570Z,1019.6
2018-02-24T04:33:56.662Z,1019.56
2018-02-24T04:34:22.757Z,1019.56
2018-02-24T04:34:48.851Z,1019.54
2018-02-24T04:35:14.952Z,1019.55
2018-02-24T04:35:41.048Z,1019.56
2018-02-24T04:36:07.145Z,1019.54
2018-02-24T04:36:33.268Z,1019.57
2018-02-24T04:36:59.366Z,1019.58
2018-02-24T04:37:25.460Z,1019.57
2018-02-24T04:37:51.556Z,1019.6
2018-02-24T04:38:17.677Z,1019.58
2018-02-24T04:38:43.772Z,1019.61
2018-02-24T04:39:09.873Z,1019.58
2018-02-24T04:39:35.965Z,1019.6
2018-02-24T04:40:02.067Z,1019.61
2018-02-24T04:40:28.177Z,1019.59
2018-02-24T04:40:54.273Z,1019.63
2018-02-24T04:41:20.381Z,1019.61
2018-02-24T04:41:46.477Z,1019.65
2018-02-24T04:42:12.575Z,1019.63
2018-02-24T04:42:38.686Z,1019.64
2018-02-24T04:43:04.786Z,1019.68
2018-02-24T04:43:30.884Z,1019.66
2018-02-24T04:43:56.985Z,1019.7
2018-02-24T04:44:23.110Z,1019.69
2018-02-24T04:44:49.210Z,1019.7
2018-02-24T04:45:15.320Z,1019.68
2018-02-24T04:45:41.415Z,1019.7
2018-02-24T04:46:07.516Z,1019.68
2018-02-24T04:46:33.633Z,1019.7
2018-02-24T04:46:59.727Z,1019.72
2018-02-24T04:47:25.834Z,1019.69
2018-02-24T04:47:51.927Z,1019.73
2018-02-24T04:48:18.019Z,1019.68
2018-02-24T04:48:44.123Z,1019.69
2018-02-24T04:49:10.216Z,1019.68
2018-02-24T04:49:36.322Z,1019.73
2018-02-24T04:50:02.422Z,1019.69
2018-02-24T04:50:28.516Z,1019.74
2018-02-24T04:50:54.627Z,1019.69
2018-02-24T04:51:20.729Z,1019.73
2018-02-24T04:51:46.830Z,1019.77
2018-02-24T04:52:12.941Z,1019.72
2018-02-24T04:52:39.045Z,1019.77
2018-02-24T04:53:05.158Z,1019.76
2018-02-24T04:53:31.253Z,1019.79
2018-02-24T04:53:57.359Z,1019.78
2018-02-24T04:54:23.454Z,1019.75
2018-02-24T04:54:49.555Z,1019.75
2018-02-24T04:55:15.652Z,1019.77
2018-02-24T04:55:41.758Z,1019.8
2018-02-24T04:56:07.860Z,1019.84
2018-02-24T04:56:33.961Z,1019.81
2018-02-24T04:57:00.061Z,1019.81
2018-02-24T04:57:26.160Z,1019.81
2018-02-24T04:57:52.261Z,1019.83
2018-02-24T04:58:18.351Z,1019.79
2018-02-24T04:58:44.450Z,1019.82
2018-02-24T04:59:10.553Z,1019.82
2018-02-24T04:59:36.655Z,1019.8
2018-02-24T05:00:02.753Z,1019.78
2018-02-24T05:00:28.855Z,1019.85
2018-02-24T05:00:54.944Z,1019.81
2018-02-24T05:01:21.038Z,1019.79
2018-02-24T05:01:47.142Z,1019.78
2018-02-24T05:02:13.236Z,1019.83
2018-02-24T05:02:39.349Z,1019.77
2018-02-24T05:03:05.449Z,1019.77
2018-02-24T05:03:31.545Z,1019.78
2018-02-24T05:03:57.644Z,1019.77
2018-02-24T05:04:23.741Z,1019.82
2018-02-24T05:04:49.835Z,1019.8
2018-02-24T05:05:15.940Z,1019.77
2018-02-24T05:05:42.041Z,1019.77
2018-02-24T05:06:08.136Z,1019.76
2018-02-24T05:06:34.238Z,1019.73
2018-02-24T05:07:00.342Z,1019.82
2018-02-24T05:07:26.438Z,1019.75
2018-02-24T05:07:52.530Z,1019.81
2018-02-24T05:08:18.633Z,1019.8
2018-02-24T05:08:44.727Z,1019.85
2018-02-24T05:09:10.822Z,1019.79
2018-02-24T05:09:36.941Z,1019.84
2018-02-24T05:10:03.044Z,1019.84
2018-02-24T05:10:29.137Z,1019.82
2018-02-24T05:10:55.240Z,1019.82
2018-02-24T05:11:21.367Z,1019.87
2018-02-24T05:11:47.461Z,1019.86
2018-02-24T05:12:13.564Z,1019.8
2018-02-24T05:12:39.664Z,1019.85
2018-02-24T05:13:05.758Z,1019.86
2018-02-24T05:13:31.877Z,1019.82
2018-02-24T05:13:57.977Z,1019.82
2018-02-24T05:14:24.073Z,1019.82
2018-02-24T05:14:50.172Z,1019.84
2018-02-24T05:15:16.274Z,1019.79
2018-02-24T05:15:42.372Z,1019.81
2018-02-24T05:16:08.471Z,1019.86
2018-02-24T05:16:34.565Z,1019.86
2018-02-24T05:17:00.663Z,1019.82